createdAt,value
2022-08-21T00:02:36.273Z,59.28
2022-08-21T00:05:42.364Z,59.37
2022-08-21T00:08:47.629Z,59.40
2022-08-21T00:11:54.009Z,59.48
2022-08-21T00:15:04.461Z,59.60
2022-08-21T00:18:13.084Z,59.72
2022-08-21T00:21:18.009Z,59.79
2022-08-21T00:24:23.826Z,59.74
2022-08-21T00:27:29.927Z,59.78
2022-08-21T00:30:37.535Z,59.91
2022-08-21T00:33:43.893Z,59.95
2022-08-21T00:36:49.551Z,59.92
2022-08-21T00:39:57.099Z,59.94
2022-08-21T00:43:05.896Z,60.01
2022-08-21T00:46:12.344Z,60.08
2022-08-21T00:49:18.196Z,60.19
2022-08-21T00:52:29.560Z,60.31
2022-08-21T00:55:37.078Z,60.38
2022-08-21T01:03:40.505Z,60.44
2022-08-21T01:06:49.041Z,60.51
2022-08-21T01:09:55.609Z,60.52
2022-08-21T01:13:03.413Z,60.64
2022-08-21T01:16:11.929Z,60.78
2022-08-21T01:19:17.803Z,60.77
2022-08-21T01:22:23.955Z,60.79
2022-08-21T01:25:31.332Z,60.77
2022-08-21T01:28:38.221Z,60.79
2022-08-21T01:31:45.199Z,60.91
2022-08-21T01:34:52.909Z,60.98
2022-08-21T01:38:00.506Z,61.05
2022-08-21T01:41:08.301Z,61.05
2022-08-21T01:44:15.287Z,61.12
2022-08-21T01:47:41.921Z,61.18
2022-08-21T01:50:47.999Z,61.28
2022-08-21T01:53:56.311Z,61.28
2022-08-21T01:57:05.442Z,61.33
2022-08-21T02:00:12.120Z,61.39
2022-08-21T02:03:23.249Z,61.44
2022-08-21T02:06:30.995Z,61.48
2022-08-21T02:09:40.144Z,61.51
2022-08-21T02:12:46.794Z,61.58
2022-08-21T02:15:53.414Z,61.72
2022-08-21T02:18:58.933Z,61.81
2022-08-21T02:22:05.902Z,61.82
2022-08-21T02:25:12.175Z,61.81
2022-08-21T02:28:21.934Z,61.86
2022-08-21T02:31:26.963Z,61.88
2022-08-21T02:34:36.302Z,61.87
2022-08-21T02:37:41.236Z,61.97
2022-08-21T02:40:51.138Z,62.04
2022-08-21T02:43:56.236Z,62.12
2022-08-21T02:47:02.287Z,62.09
2022-08-21T02:50:09.064Z,62.18
2022-08-21T02:53:15.644Z,62.19
2022-08-21T02:56:25.187Z,62.18
2022-08-21T02:59:33.381Z,62.26
2022-08-21T03:02:39.972Z,62.38
2022-08-21T03:05:47.344Z,62.46
2022-08-21T03:08:55.057Z,62.50
2022-08-21T03:12:02.959Z,62.55
2022-08-21T03:15:10.038Z,62.55
2022-08-21T03:18:17.228Z,62.57
2022-08-21T03:21:23.810Z,62.63
2022-08-21T03:24:29.661Z,62.67
2022-08-21T03:27:35.223Z,62.73
2022-08-21T03:30:41.781Z,62.79
2022-08-21T03:33:48.969Z,62.85
2022-08-21T03:36:56.573Z,62.90
2022-08-21T03:40:03.314Z,62.90
2022-08-21T03:43:11.517Z,62.85
2022-08-21T03:46:19.775Z,62.81
2022-08-21T03:49:28.844Z,62.80
2022-08-21T03:52:34.887Z,62.92
2022-08-21T03:55:41.297Z,62.94
2022-08-21T03:58:47.914Z,62.96
2022-08-21T04:01:54.191Z,63.02
2022-08-21T04:05:00.446Z,63.11
2022-08-21T04:08:09.391Z,63.10
2022-08-21T04:11:19.321Z,63.16
2022-08-21T04:14:26.023Z,63.20
2022-08-21T04:17:29.393Z,63.21
2022-08-21T04:20:35.174Z,63.29
2022-08-21T04:23:42.373Z,63.36
2022-08-21T04:26:50.553Z,63.39
2022-08-21T04:29:56.512Z,63.27
2022-08-21T04:33:04.339Z,63.26
2022-08-21T04:36:11.496Z,63.29
2022-08-21T04:39:22.188Z,63.25
2022-08-21T04:42:29.975Z,63.25
2022-08-21T04:45:44.423Z,63.27
2022-08-21T04:48:51.230Z,63.23
2022-08-21T04:51:56.653Z,63.23
2022-08-21T04:55:02.382Z,63.28
2022-08-21T04:58:08.473Z,63.34
2022-08-21T05:01:14.341Z,63.32
2022-08-21T05:04:23.274Z,63.28
2022-08-21T05:07:42.223Z,63.24
2022-08-21T05:10:41.572Z,63.26
2022-08-21T05:13:52.307Z,63.27
2022-08-21T05:16:59.414Z,63.30
2022-08-21T05:20:05.978Z,63.27
2022-08-21T05:23:18.770Z,63.21
2022-08-21T05:26:26.050Z,63.22
2022-08-21T05:29:33.786Z,63.25
2022-08-21T05:32:41.590Z,63.22
2022-08-21T05:35:49.483Z,63.22
2022-08-21T05:38:56.218Z,63.18
2022-08-21T05:42:02.254Z,63.15
2022-08-21T05:45:09.842Z,63.14
2022-08-21T05:48:24.698Z,63.21
2022-08-21T05:51:33.663Z,63.19
2022-08-21T05:54:39.155Z,63.10
2022-08-21T05:57:49.613Z,63.06
2022-08-21T06:01:06.577Z,63.12
2022-08-21T06:04:12.644Z,63.04
2022-08-21T06:07:21.068Z,63.09
2022-08-21T06:10:27.300Z,63.13
2022-08-21T06:13:36.707Z,63.06
2022-08-21T06:16:45.326Z,62.98
2022-08-21T06:19:54.912Z,62.91
2022-08-21T06:23:01.492Z,62.91
2022-08-21T06:26:08.359Z,62.87
2022-08-21T06:29:17.493Z,62.85
2022-08-21T06:32:26.240Z,62.76
2022-08-21T06:35:33.382Z,62.76
2022-08-21T06:38:40.168Z,62.79
2022-08-21T06:41:45.615Z,62.77
2022-08-21T06:44:55.969Z,62.78
2022-08-21T06:48:02.618Z,62.67
2022-08-21T06:51:07.867Z,62.63
2022-08-21T06:54:16.742Z,62.68
2022-08-21T06:57:24.620Z,62.46
2022-08-21T07:00:32.983Z,62.42
2022-08-21T07:03:43.879Z,62.44
2022-08-21T07:06:52.082Z,62.50
2022-08-21T07:09:58.189Z,62.52
2022-08-21T07:13:08.450Z,62.56
2022-08-21T07:16:14.796Z,62.48
2022-08-21T07:19:21.884Z,62.48
2022-08-21T07:22:27.128Z,62.53
2022-08-21T07:25:34.620Z,62.50
2022-08-21T07:28:44.080Z,62.55
2022-08-21T07:31:50.159Z,62.45
2022-08-21T07:34:58.573Z,62.20
2022-08-21T07:38:06.939Z,62.10
2022-08-21T07:41:13.782Z,62.11
2022-08-21T07:44:21.378Z,62.00
2022-08-21T07:47:41.776Z,62.06
2022-08-21T07:50:36.212Z,62.13
2022-08-21T07:53:43.741Z,62.08
2022-08-21T07:56:49.900Z,62.08
2022-08-21T07:59:56.991Z,62.05
2022-08-21T08:03:06.843Z,62.01
2022-08-21T08:06:14.251Z,61.96
2022-08-21T08:09:20.773Z,61.88
2022-08-21T08:12:34.367Z,61.90
2022-08-21T08:15:45.307Z,61.76
2022-08-21T08:18:52.602Z,61.69
2022-08-21T08:21:58.671Z,61.58
2022-08-21T08:25:09.192Z,61.54
2022-08-21T08:28:16.637Z,61.40
2022-08-21T08:31:21.524Z,61.26
2022-08-21T08:34:31.081Z,61.02
2022-08-21T08:37:39.685Z,60.85
2022-08-21T08:40:56.947Z,60.82
2022-08-21T08:44:13.746Z,60.67
2022-08-21T08:47:20.991Z,60.66
2022-08-21T08:50:45.743Z,60.71
2022-08-21T08:54:05.562Z,60.75
2022-08-21T08:57:12.610Z,60.60
2022-08-21T09:00:24.732Z,60.51
2022-08-21T09:03:32.201Z,60.55
2022-08-21T09:06:45.375Z,60.44
2022-08-21T09:10:15.316Z,60.47
2022-08-21T09:13:46.920Z,60.39
2022-08-21T09:17:09.048Z,60.43
2022-08-21T09:20:43.013Z,60.42
2022-08-21T09:24:18.764Z,60.35
2022-08-21T09:27:31.138Z,60.23
2022-08-21T09:30:46.797Z,60.23
2022-08-21T09:33:54.018Z,60.18
2022-08-21T09:37:08.264Z,60.14
2022-08-21T09:40:14.562Z,60.22
2022-08-21T09:43:33.855Z,60.09
2022-08-21T09:46:42.414Z,60.03
2022-08-21T09:49:53.823Z,59.88
2022-08-21T09:53:07.154Z,59.76
2022-08-21T09:56:36.429Z,59.81
2022-08-21T09:59:49.516Z,59.81
2022-08-21T10:02:56.225Z,59.85
2022-08-21T10:06:16.340Z,59.85
2022-08-21T10:09:29.646Z,59.75
2022-08-21T10:12:40.381Z,59.63
2022-08-21T10:16:09.975Z,59.43
2022-08-21T10:19:49.628Z,59.42
2022-08-21T10:23:07.687Z,59.36
2022-08-21T10:26:40.642Z,59.40
2022-08-21T10:29:52.903Z,59.29
2022-08-21T10:33:22.085Z,59.23
2022-08-21T10:36:36.113Z,59.31
2022-08-21T10:40:01.736Z,59.19
2022-08-21T10:43:56.229Z,59.19
2022-08-21T10:47:09.504Z,59.14
2022-08-21T10:50:47.299Z,59.04
2022-08-21T10:54:22.827Z,58.81
2022-08-21T10:57:36.512Z,58.76
2022-08-21T11:00:54.858Z,58.77
2022-08-21T11:04:30.032Z,58.83
2022-08-21T11:07:53.398Z,58.79
2022-08-21T11:11:08.226Z,58.71
2022-08-21T11:14:22.432Z,58.49
2022-08-21T11:17:34.358Z,58.23
2022-08-21T11:21:15.443Z,58.01
2022-08-21T11:24:52.696Z,58.01
2022-08-21T11:28:24.729Z,57.95
2022-08-21T11:32:02.540Z,57.74
2022-08-21T11:35:36.289Z,57.47
2022-08-21T11:38:47.661Z,57.30
2022-08-21T11:41:59.484Z,56.94
2022-08-21T11:45:29.084Z,56.75
2022-08-21T11:48:59.811Z,56.58
2022-08-21T11:52:43.097Z,56.27
2022-08-21T11:56:20.641Z,56.22
2022-08-21T11:59:56.716Z,56.19
2022-08-21T12:03:09.050Z,55.97
2022-08-21T12:06:24.303Z,55.79
2022-08-21T12:09:49.738Z,55.57
2022-08-21T12:12:59.312Z,55.44
2022-08-21T12:16:07.192Z,55.38
2022-08-21T12:19:22.478Z,55.08
2022-08-21T12:22:30.479Z,55.02
2022-08-21T12:25:36.503Z,54.84
2022-08-21T12:28:45.134Z,54.57
2022-08-21T12:31:52.744Z,54.35
2022-08-21T12:35:36.996Z,54.22
2022-08-21T12:38:49.187Z,54.10
2022-08-21T12:42:06.071Z,53.90
2022-08-21T12:45:15.623Z,53.79
2022-08-21T12:48:42.878Z,53.57
2022-08-21T12:52:25.284Z,53.15
2022-08-21T12:55:33.340Z,53.01
2022-08-21T12:58:41.447Z,52.68
2022-08-21T13:02:03.151Z,52.68
2022-08-21T13:05:10.462Z,52.75
2022-08-21T13:08:23.521Z,52.75
2022-08-21T13:11:34.375Z,52.53
2022-08-21T13:14:56.091Z,52.44
2022-08-21T13:18:07.692Z,51.89
2022-08-21T13:21:29.624Z,51.89
2022-08-21T13:24:43.204Z,51.94
2022-08-21T13:27:49.279Z,51.81
2022-08-21T13:31:09.158Z,51.75
2022-08-21T13:34:19.500Z,51.66
2022-08-21T13:37:26.283Z,51.10
2022-08-21T13:40:37.824Z,51.10
2022-08-21T13:43:50.174Z,51.26
2022-08-21T13:46:58.694Z,51.17
2022-08-21T13:50:08.079Z,51.13
2022-08-21T13:53:24.034Z,50.83
2022-08-21T13:56:47.370Z,50.75
2022-08-21T13:59:55.807Z,50.60
2022-08-21T14:03:07.289Z,50.49
2022-08-21T14:06:17.585Z,50.40
2022-08-21T14:09:30.489Z,50.26
2022-08-21T14:13:07.668Z,50.16
2022-08-21T14:16:18.337Z,50.05
2022-08-21T14:19:21.996Z,49.82
2022-08-21T14:22:53.083Z,49.73
2022-08-21T14:25:53.533Z,49.65
2022-08-21T14:29:09.541Z,49.49
2022-08-21T14:32:21.617Z,49.40
2022-08-21T14:35:28.060Z,49.23
2022-08-21T14:38:36.295Z,49.19
2022-08-21T14:41:46.934Z,49.16
2022-08-21T14:44:52.813Z,49.07
2022-08-21T14:47:59.405Z,48.92
2022-08-21T14:51:09.568Z,48.81
2022-08-21T14:54:17.644Z,48.69
2022-08-21T14:57:25.776Z,48.61
2022-08-21T15:00:35.974Z,48.55
2022-08-21T15:03:45.149Z,48.47
2022-08-21T15:06:52.729Z,48.31
2022-08-21T15:10:01.065Z,48.20
2022-08-21T15:13:06.991Z,48.09
2022-08-21T15:16:13.797Z,48.08
2022-08-21T15:19:19.397Z,47.98
2022-08-21T15:22:28.834Z,47.90
2022-08-21T15:25:34.821Z,47.88
2022-08-21T15:28:44.172Z,47.90
2022-08-21T15:31:50.596Z,47.85
2022-08-21T15:34:58.466Z,47.86
2022-08-21T15:38:05.724Z,47.83
2022-08-21T15:41:13.108Z,47.85
2022-08-21T15:44:19.912Z,47.87
2022-08-21T15:47:34.085Z,47.85
2022-08-21T15:50:41.238Z,47.80
2022-08-21T15:53:47.619Z,47.79
2022-08-21T15:56:58.278Z,47.70
2022-08-21T16:00:07.650Z,47.62
2022-08-21T16:03:14.800Z,47.63
2022-08-21T16:06:37.595Z,47.69
2022-08-21T16:09:32.468Z,47.74
2022-08-21T16:12:41.466Z,47.85
2022-08-21T16:15:48.028Z,47.92
2022-08-21T16:18:53.915Z,47.92
2022-08-21T16:22:03.802Z,48.01
2022-08-21T16:25:11.173Z,47.97
2022-08-21T16:28:18.626Z,48.00
2022-08-21T16:31:24.807Z,48.05
2022-08-21T16:34:36.763Z,48.07
2022-08-21T16:37:44.326Z,48.09
2022-08-21T16:40:53.085Z,48.13
2022-08-21T16:44:00.873Z,48.15
2022-08-21T16:47:06.636Z,48.17
2022-08-21T16:50:12.800Z,48.23
2022-08-21T16:53:18.544Z,48.29
2022-08-21T16:56:27.174Z,48.34
2022-08-21T16:59:32.299Z,48.37
2022-08-21T17:02:47.959Z,48.39
2022-08-21T17:05:54.247Z,48.44
2022-08-21T17:09:01.620Z,48.52
2022-08-21T17:12:09.318Z,48.56
2022-08-21T17:15:21.228Z,48.56
2022-08-21T17:18:31.752Z,48.63
2022-08-21T17:21:37.671Z,48.69
2022-08-21T17:24:44.045Z,48.73
2022-08-21T17:27:51.292Z,48.79
2022-08-21T17:30:57.786Z,48.81
2022-08-21T17:34:05.499Z,48.81
2022-08-21T17:37:10.265Z,48.87
2022-08-21T17:40:17.361Z,48.91
2022-08-21T17:43:24.931Z,48.94
2022-08-21T17:46:35.121Z,48.97
2022-08-21T17:49:41.582Z,49.04
2022-08-21T17:52:47.635Z,49.08
2022-08-21T17:55:54.051Z,49.10
2022-08-21T17:59:05.326Z,49.11
2022-08-21T18:02:19.590Z,49.16
2022-08-21T18:05:20.525Z,49.19
2022-08-21T18:08:26.214Z,49.16
2022-08-21T18:11:33.108Z,49.24
2022-08-21T18:14:46.117Z,49.29
2022-08-21T18:17:55.803Z,49.45
2022-08-21T18:21:02.519Z,49.59
2022-08-21T18:24:09.145Z,49.67
2022-08-21T18:27:14.674Z,49.71
2022-08-21T18:30:21.239Z,49.73
2022-08-21T18:33:28.961Z,49.85
2022-08-21T18:36:36.286Z,49.90
2022-08-21T18:39:44.215Z,49.96
2022-08-21T18:42:55.798Z,50.03
2022-08-21T18:46:04.358Z,50.02
2022-08-21T18:49:09.658Z,50.08
2022-08-21T18:52:20.288Z,50.13
2022-08-21T18:55:24.812Z,50.25
2022-08-21T18:58:31.212Z,50.29
2022-08-21T19:01:39.747Z,50.28
2022-08-21T19:04:48.426Z,50.33
2022-08-21T19:07:55.521Z,50.38
2022-08-21T19:11:03.154Z,50.51
2022-08-21T19:14:10.019Z,50.56
2022-08-21T19:17:17.721Z,50.61
2022-08-21T19:20:41.606Z,50.66
2022-08-21T19:23:52.598Z,50.71
2022-08-21T19:26:59.968Z,50.78
2022-08-21T19:30:05.752Z,50.83
2022-08-21T19:33:13.054Z,50.91
2022-08-21T19:36:23.480Z,50.97
2022-08-21T19:39:30.900Z,51.00
2022-08-21T19:42:37.556Z,51.05
2022-08-21T19:45:45.819Z,51.08
2022-08-21T19:48:52.224Z,51.12
2022-08-21T19:51:59.332Z,51.18
2022-08-21T19:55:09.213Z,51.19
2022-08-21T19:58:17.929Z,51.22
2022-08-21T20:01:25.799Z,51.21
2022-08-21T20:04:32.248Z,51.24
2022-08-21T20:07:39.514Z,51.24
2022-08-21T20:10:45.661Z,51.22
2022-08-21T20:13:55.990Z,51.18
2022-08-21T20:17:03.601Z,51.20
2022-08-21T20:20:10.043Z,51.23
2022-08-21T20:23:19.586Z,51.25
2022-08-21T20:26:27.492Z,51.23
2022-08-21T20:29:38.964Z,51.25
2022-08-21T20:32:43.498Z,51.23
2022-08-21T20:35:53.765Z,51.25
2022-08-21T20:38:59.714Z,51.27
2022-08-21T20:42:06.970Z,51.27
2022-08-21T20:45:15.038Z,51.24
2022-08-21T20:48:49.513Z,51.23
2022-08-21T20:51:59.837Z,51.25
2022-08-21T20:55:13.245Z,51.24
2022-08-21T20:58:32.101Z,51.25
2022-08-21T21:01:40.731Z,51.24
2022-08-21T21:05:05.305Z,51.21
2022-08-21T21:08:39.535Z,51.23
2022-08-21T21:11:52.978Z,51.21
2022-08-21T21:15:05.304Z,51.22
2022-08-21T21:18:24.650Z,51.27
2022-08-21T21:21:55.012Z,51.29
2022-08-21T21:25:20.771Z,51.27
2022-08-21T21:28:48.552Z,51.21
2022-08-21T21:31:55.249Z,51.18
2022-08-21T21:35:01.328Z,51.20
2022-08-21T21:38:51.925Z,51.19
2022-08-21T21:42:10.077Z,51.17
2022-08-21T21:45:29.045Z,51.19
2022-08-21T21:48:59.168Z,51.18
2022-08-21T21:52:20.164Z,51.18
2022-08-21T21:55:49.888Z,51.18
2022-08-21T21:59:12.321Z,51.17
2022-08-21T22:02:32.629Z,51.18
2022-08-21T22:06:11.864Z,51.15
2022-08-21T22:09:36.359Z,51.06
2022-08-21T22:12:57.879Z,51.00
2022-08-21T22:16:05.904Z,51.00
2022-08-21T22:19:18.605Z,51.09
2022-08-21T22:22:31.442Z,51.10
2022-08-21T22:25:43.492Z,51.08
2022-08-21T22:28:54.717Z,51.08
2022-08-21T22:32:06.948Z,51.07
2022-08-21T22:35:24.589Z,51.03
2022-08-21T22:38:48.025Z,51.00
2022-08-21T22:41:57.768Z,50.96
2022-08-21T22:45:12.383Z,50.97
2022-08-21T22:48:22.630Z,50.93
2022-08-21T22:51:47.945Z,50.89
2022-08-21T22:54:56.897Z,50.88
2022-08-21T22:58:25.476Z,50.85
2022-08-21T23:01:42.025Z,50.81
2022-08-21T23:04:48.322Z,50.78
2022-08-21T23:07:58.445Z,50.75
2022-08-21T23:11:05.136Z,50.70
2022-08-21T23:14:14.438Z,50.62
2022-08-21T23:17:27.207Z,50.60
2022-08-21T23:20:46.968Z,50.57
2022-08-21T23:23:59.227Z,50.53
2022-08-21T23:27:34.157Z,50.53
2022-08-21T23:31:07.020Z,50.51
2022-08-21T23:34:31.388Z,50.48
2022-08-21T23:37:59.246Z,50.48
2022-08-21T23:41:20.579Z,50.42
2022-08-21T23:48:31.059Z,50.33
2022-08-21T23:52:18.607Z,50.27
2022-08-21T23:55:38.524Z,50.21
2022-08-21T23:59:04.942Z,50.17
